sensor_id;sensor_type;location;lat;lon;timestamp;P1;durP1;ratioP1;P2;durP2;ratioP2
419;SDS011;42600;54.408;13.016;2022-11-11T00:01:37;3.10;;;1.30;;
419;SDS011;42600;54.408;13.016;2022-11-11T00:04:04;5.70;;;1.73;;
419;SDS011;42600;54.408;13.016;2022-11-11T00:06:31;1.50;;;1.03;;
419;SDS011;42600;54.408;13.016;2022-11-11T00:08:58;11.23;;;1.40;;
419;SDS011;42600;54.408;13.016;2022-11-11T00:11:24;2.67;;;1.20;;
419;SDS011;42600;54.408;13.016;2022-11-11T00:13:51;10.03;;;1.93;;
419;SDS011;42600;54.408;13.016;2022-11-11T00:16:19;14.93;;;1.33;;
419;SDS011;42600;54.408;13.016;2022-11-11T00:18:46;3.03;;;1.13;;
419;SDS011;42600;54.408;13.016;2022-11-11T00:21:32;4.60;;;2.20;;
419;SDS011;42600;54.408;13.016;2022-11-11T00:24:20;3.10;;;1.30;;
419;SDS011;42600;54.408;13.016;2022-11-11T00:27:07;23.20;;;3.30;;
419;SDS011;42600;54.408;13.016;2022-11-11T00:29:34;2.93;;;1.03;;
419;SDS011;42600;54.408;13.016;2022-11-11T00:32:01;4.60;;;2.00;;
419;SDS011;42600;54.408;13.016;2022-11-11T00:34:45;1.87;;;1.03;;
419;SDS011;42600;54.408;13.016;2022-11-11T00:37:27;6.03;;;1.80;;
419;SDS011;42600;54.408;13.016;2022-11-11T00:39:54;2.30;;;0.80;;
419;SDS011;42600;54.408;13.016;2022-11-11T00:42:20;2.97;;;0.80;;
419;SDS011;42600;54.408;13.016;2022-11-11T00:44:47;2.23;;;1.40;;
419;SDS011;42600;54.408;13.016;2022-11-11T00:47:13;1.77;;;0.70;;
419;SDS011;42600;54.408;13.016;2022-11-11T00:49:58;8.97;;;1.63;;
419;SDS011;42600;54.408;13.016;2022-11-11T00:52:45;4.73;;;1.40;;
419;SDS011;42600;54.408;13.016;2022-11-11T00:55:12;2.63;;;1.30;;
419;SDS011;42600;54.408;13.016;2022-11-11T00:57:38;5.03;;;1.27;;
419;SDS011;42600;54.408;13.016;2022-11-11T01:00:05;3.63;;;1.43;;
419;SDS011;42600;54.408;13.016;2022-11-11T01:02:32;1.43;;;0.83;;
419;SDS011;42600;54.408;13.016;2022-11-11T01:04:59;2.60;;;1.13;;
419;SDS011;42600;54.408;13.016;2022-11-11T01:07:26;6.63;;;1.20;;
419;SDS011;42600;54.408;13.016;2022-11-11T01:09:53;8.53;;;1.10;;
419;SDS011;42600;54.408;13.016;2022-11-11T01:12:20;3.40;;;1.23;;
419;SDS011;42600;54.408;13.016;2022-11-11T01:14:47;2.43;;;1.40;;
419;SDS011;42600;54.408;13.016;2022-11-11T01:17:13;3.37;;;1.10;;
419;SDS011;42600;54.408;13.016;2022-11-11T01:19:40;1.90;;;0.83;;
419;SDS011;42600;54.408;13.016;2022-11-11T01:22:06;3.70;;;1.83;;
419;SDS011;42600;54.408;13.016;2022-11-11T01:24:33;4.67;;;1.20;;
419;SDS011;42600;54.408;13.016;2022-11-11T01:27:03;3.00;;;1.00;;
419;SDS011;42600;54.408;13.016;2022-11-11T01:29:29;4.20;;;1.00;;
419;SDS011;42600;54.408;13.016;2022-11-11T01:31:56;2.30;;;1.33;;
419;SDS011;42600;54.408;13.016;2022-11-11T01:34:22;1.40;;;0.83;;
419;SDS011;42600;54.408;13.016;2022-11-11T01:36:49;4.00;;;1.00;;
419;SDS011;42600;54.408;13.016;2022-11-11T01:39:16;1.50;;;1.17;;
419;SDS011;42600;54.408;13.016;2022-11-11T01:41:42;1.87;;;1.13;;
419;SDS011;42600;54.408;13.016;2022-11-11T01:47:08;1.43;;;0.83;;
419;SDS011;42600;54.408;13.016;2022-11-11T01:49:36;3.23;;;1.03;;
419;SDS011;42600;54.408;13.016;2022-11-11T01:52:07;3.00;;;1.00;;
419;SDS011;42600;54.408;13.016;2022-11-11T01:54:39;3.27;;;1.10;;
419;SDS011;42600;54.408;13.016;2022-11-11T01:57:10;6.30;;;1.13;;
419;SDS011;42600;54.408;13.016;2022-11-11T01:59:42;2.20;;;1.07;;
419;SDS011;42600;54.408;13.016;2022-11-11T02:02:12;5.03;;;1.87;;
419;SDS011;42600;54.408;13.016;2022-11-11T02:04:43;1.87;;;1.00;;
419;SDS011;42600;54.408;13.016;2022-11-11T02:07:29;6.03;;;1.50;;
419;SDS011;42600;54.408;13.016;2022-11-11T02:09:57;8.73;;;1.70;;
419;SDS011;42600;54.408;13.016;2022-11-11T02:12:24;4.20;;;1.60;;
419;SDS011;42600;54.408;13.016;2022-11-11T02:15:15;2.70;;;1.33;;
419;SDS011;42600;54.408;13.016;2022-11-11T02:17:41;12.77;;;2.30;;
419;SDS011;42600;54.408;13.016;2022-11-11T02:20:08;5.80;;;2.00;;
419;SDS011;42600;54.408;13.016;2022-11-11T02:22:41;6.80;;;1.63;;
419;SDS011;42600;54.408;13.016;2022-11-11T02:25:16;6.63;;;1.93;;
419;SDS011;42600;54.408;13.016;2022-11-11T02:27:46;2.10;;;1.60;;
419;SDS011;42600;54.408;13.016;2022-11-11T02:30:15;8.60;;;2.20;;
419;SDS011;42600;54.408;13.016;2022-11-11T02:32:44;3.03;;;1.50;;
419;SDS011;42600;54.408;13.016;2022-11-11T02:35:14;2.40;;;1.80;;
419;SDS011;42600;54.408;13.016;2022-11-11T02:37:43;30.67;;;1.90;;
419;SDS011;42600;54.408;13.016;2022-11-11T02:40:11;4.80;;;1.87;;
419;SDS011;42600;54.408;13.016;2022-11-11T02:42:40;4.07;;;2.63;;
419;SDS011;42600;54.408;13.016;2022-11-11T02:45:07;3.60;;;2.40;;
419;SDS011;42600;54.408;13.016;2022-11-11T02:47:34;5.10;;;2.60;;
419;SDS011;42600;54.408;13.016;2022-11-11T02:50:01;6.40;;;2.10;;
419;SDS011;42600;54.408;13.016;2022-11-11T02:52:27;2.70;;;1.90;;
419;SDS011;42600;54.408;13.016;2022-11-11T02:54:54;4.40;;;1.80;;
419;SDS011;42600;54.408;13.016;2022-11-11T02:57:20;5.23;;;3.30;;
419;SDS011;42600;54.408;13.016;2022-11-11T02:59:49;4.60;;;2.40;;
419;SDS011;42600;54.408;13.016;2022-11-11T03:02:16;3.50;;;2.00;;
419;SDS011;42600;54.408;13.016;2022-11-11T03:04:42;6.33;;;2.80;;
419;SDS011;42600;54.408;13.016;2022-11-11T03:07:09;3.70;;;2.40;;
419;SDS011;42600;54.408;13.016;2022-11-11T03:09:35;6.23;;;2.60;;
419;SDS011;42600;54.408;13.016;2022-11-11T03:12:02;3.37;;;2.10;;
419;SDS011;42600;54.408;13.016;2022-11-11T03:14:29;5.93;;;2.43;;
419;SDS011;42600;54.408;13.016;2022-11-11T03:16:57;8.20;;;2.90;;
419;SDS011;42600;54.408;13.016;2022-11-11T03:19:41;3.97;;;2.57;;
419;SDS011;42600;54.408;13.016;2022-11-11T03:22:07;5.63;;;2.50;;
419;SDS011;42600;54.408;13.016;2022-11-11T03:24:33;15.73;;;2.70;;
419;SDS011;42600;54.408;13.016;2022-11-11T03:27:17;6.93;;;2.33;;
419;SDS011;42600;54.408;13.016;2022-11-11T03:29:44;4.53;;;2.13;;
419;SDS011;42600;54.408;13.016;2022-11-11T03:32:11;3.37;;;2.53;;
419;SDS011;42600;54.408;13.016;2022-11-11T03:34:38;5.83;;;2.00;;
419;SDS011;42600;54.408;13.016;2022-11-11T03:37:05;6.13;;;2.70;;
419;SDS011;42600;54.408;13.016;2022-11-11T03:39:51;5.60;;;2.30;;
419;SDS011;42600;54.408;13.016;2022-11-11T03:42:18;10.10;;;3.53;;
419;SDS011;42600;54.408;13.016;2022-11-11T03:44:45;6.93;;;2.43;;
419;SDS011;42600;54.408;13.016;2022-11-11T03:47:13;5.93;;;2.87;;
419;SDS011;42600;54.408;13.016;2022-11-11T03:49:40;3.80;;;2.27;;
419;SDS011;42600;54.408;13.016;2022-11-11T03:52:07;2.93;;;1.50;;
419;SDS011;42600;54.408;13.016;2022-11-11T03:54:33;8.63;;;2.23;;
419;SDS011;42600;54.408;13.016;2022-11-11T03:57:00;9.50;;;2.43;;
419;SDS011;42600;54.408;13.016;2022-11-11T03:59:44;4.60;;;1.00;;
419;SDS011;42600;54.408;13.016;2022-11-11T04:02:11;4.00;;;2.50;;
419;SDS011;42600;54.408;13.016;2022-11-11T04:04:57;8.13;;;3.27;;
419;SDS011;42600;54.408;13.016;2022-11-11T04:07:41;11.57;;;2.77;;
419;SDS011;42600;54.408;13.016;2022-11-11T04:10:27;5.30;;;2.37;;
419;SDS011;42600;54.408;13.016;2022-11-11T04:12:55;7.93;;;3.60;;
419;SDS011;42600;54.408;13.016;2022-11-11T04:15:41;4.77;;;2.30;;
419;SDS011;42600;54.408;13.016;2022-11-11T04:18:26;3.60;;;1.80;;
419;SDS011;42600;54.408;13.016;2022-11-11T04:21:07;13.30;;;2.97;;
419;SDS011;42600;54.408;13.016;2022-11-11T04:23:53;5.47;;;3.70;;
419;SDS011;42600;54.408;13.016;2022-11-11T04:26:20;4.40;;;2.57;;
419;SDS011;42600;54.408;13.016;2022-11-11T04:28:46;3.87;;;2.53;;
419;SDS011;42600;54.408;13.016;2022-11-11T04:31:30;5.70;;;2.50;;
419;SDS011;42600;54.408;13.016;2022-11-11T04:33:58;9.90;;;2.60;;
419;SDS011;42600;54.408;13.016;2022-11-11T04:36:24;9.20;;;2.00;;
419;SDS011;42600;54.408;13.016;2022-11-11T04:38:50;4.40;;;2.47;;
419;SDS011;42600;54.408;13.016;2022-11-11T04:41:34;6.97;;;2.80;;
419;SDS011;42600;54.408;13.016;2022-11-11T04:44:01;11.90;;;4.30;;
419;SDS011;42600;54.408;13.016;2022-11-11T04:46:51;8.30;;;3.10;;
419;SDS011;42600;54.408;13.016;2022-11-11T04:49:19;8.07;;;2.97;;
419;SDS011;42600;54.408;13.016;2022-11-11T04:51:45;7.83;;;4.27;;
419;SDS011;42600;54.408;13.016;2022-11-11T04:54:30;6.90;;;4.00;;
419;SDS011;42600;54.408;13.016;2022-11-11T04:57:16;16.73;;;3.53;;
419;SDS011;42600;54.408;13.016;2022-11-11T04:59:42;3.30;;;1.83;;
419;SDS011;42600;54.408;13.016;2022-11-11T05:02:09;6.50;;;2.20;;
419;SDS011;42600;54.408;13.016;2022-11-11T05:04:55;17.03;;;2.90;;
419;SDS011;42600;54.408;13.016;2022-11-11T05:07:22;5.17;;;3.20;;
419;SDS011;42600;54.408;13.016;2022-11-11T05:10:06;6.90;;;2.90;;
419;SDS011;42600;54.408;13.016;2022-11-11T05:12:33;6.67;;;2.80;;
419;SDS011;42600;54.408;13.016;2022-11-11T05:14:59;23.03;;;3.23;;
419;SDS011;42600;54.408;13.016;2022-11-11T05:17:44;6.33;;;3.17;;
419;SDS011;42600;54.408;13.016;2022-11-11T05:20:34;7.33;;;1.97;;
419;SDS011;42600;54.408;13.016;2022-11-11T05:23:19;6.40;;;3.40;;
419;SDS011;42600;54.408;13.016;2022-11-11T05:25:45;15.93;;;4.40;;
419;SDS011;42600;54.408;13.016;2022-11-11T05:28:11;3.60;;;2.13;;
419;SDS011;42600;54.408;13.016;2022-11-11T05:30:37;11.97;;;3.17;;
419;SDS011;42600;54.408;13.016;2022-11-11T05:33:05;8.20;;;3.00;;
419;SDS011;42600;54.408;13.016;2022-11-11T05:35:31;8.70;;;2.50;;
419;SDS011;42600;54.408;13.016;2022-11-11T05:38:02;8.30;;;3.13;;
419;SDS011;42600;54.408;13.016;2022-11-11T05:40:46;4.63;;;2.77;;
419;SDS011;42600;54.408;13.016;2022-11-11T05:43:13;10.80;;;3.73;;
419;SDS011;42600;54.408;13.016;2022-11-11T05:45:40;14.17;;;3.20;;
419;SDS011;42600;54.408;13.016;2022-11-11T05:48:07;10.67;;;2.40;;
419;SDS011;42600;54.408;13.016;2022-11-11T05:50:33;5.93;;;1.60;;
419;SDS011;42600;54.408;13.016;2022-11-11T05:53:03;9.40;;;3.13;;
419;SDS011;42600;54.408;13.016;2022-11-11T05:55:29;4.87;;;3.00;;
419;SDS011;42600;54.408;13.016;2022-11-11T05:57:56;4.63;;;2.70;;
419;SDS011;42600;54.408;13.016;2022-11-11T06:00:22;9.70;;;2.57;;
419;SDS011;42600;54.408;13.016;2022-11-11T06:02:49;6.20;;;2.83;;
419;SDS011;42600;54.408;13.016;2022-11-11T06:05:16;10.73;;;3.40;;
419;SDS011;42600;54.408;13.016;2022-11-11T06:07:42;10.43;;;3.07;;
419;SDS011;42600;54.408;13.016;2022-11-11T06:10:10;3.40;;;1.87;;
419;SDS011;42600;54.408;13.016;2022-11-11T06:12:54;8.67;;;2.83;;
419;SDS011;42600;54.408;13.016;2022-11-11T06:15:29;4.73;;;2.27;;
419;SDS011;42600;54.408;13.016;2022-11-11T06:17:56;5.60;;;3.17;;
419;SDS011;42600;54.408;13.016;2022-11-11T06:20:22;4.90;;;2.63;;
419;SDS011;42600;54.408;13.016;2022-11-11T06:22:49;5.60;;;3.27;;
419;SDS011;42600;54.408;13.016;2022-11-11T06:25:24;5.33;;;2.37;;
419;SDS011;42600;54.408;13.016;2022-11-11T06:28:09;12.93;;;2.63;;
419;SDS011;42600;54.408;13.016;2022-11-11T06:30:36;6.70;;;3.03;;
419;SDS011;42600;54.408;13.016;2022-11-11T06:33:03;3.60;;;2.33;;
419;SDS011;42600;54.408;13.016;2022-11-11T06:35:31;6.23;;;2.47;;
419;SDS011;42600;54.408;13.016;2022-11-11T06:37:58;9.30;;;3.73;;
419;SDS011;42600;54.408;13.016;2022-11-11T06:40:26;4.83;;;2.20;;
419;SDS011;42600;54.408;13.016;2022-11-11T06:42:53;2.77;;;1.87;;
419;SDS011;42600;54.408;13.016;2022-11-11T06:45:19;2.33;;;1.17;;
419;SDS011;42600;54.408;13.016;2022-11-11T06:47:46;3.80;;;2.00;;
419;SDS011;42600;54.408;13.016;2022-11-11T06:50:13;5.23;;;1.90;;
419;SDS011;42600;54.408;13.016;2022-11-11T06:52:40;3.30;;;2.10;;
419;SDS011;42600;54.408;13.016;2022-11-11T06:55:06;10.37;;;2.70;;
419;SDS011;42600;54.408;13.016;2022-11-11T06:57:34;8.83;;;2.57;;
419;SDS011;42600;54.408;13.016;2022-11-11T07:00:01;6.00;;;2.40;;
419;SDS011;42600;54.408;13.016;2022-11-11T07:02:29;3.10;;;1.73;;
419;SDS011;42600;54.408;13.016;2022-11-11T07:04:55;5.57;;;2.53;;
419;SDS011;42600;54.408;13.016;2022-11-11T07:07:22;7.83;;;3.33;;
419;SDS011;42600;54.408;13.016;2022-11-11T07:09:48;22.80;;;3.23;;
419;SDS011;42600;54.408;13.016;2022-11-11T07:12:15;7.13;;;2.60;;
419;SDS011;42600;54.408;13.016;2022-11-11T07:14:43;9.40;;;2.43;;
419;SDS011;42600;54.408;13.016;2022-11-11T07:17:10;15.73;;;3.70;;
419;SDS011;42600;54.408;13.016;2022-11-11T07:19:36;18.23;;;4.03;;
419;SDS011;42600;54.408;13.016;2022-11-11T07:22:03;5.30;;;2.40;;
419;SDS011;42600;54.408;13.016;2022-11-11T07:24:30;4.67;;;2.37;;
419;SDS011;42600;54.408;13.016;2022-11-11T07:26:56;10.33;;;2.33;;
419;SDS011;42600;54.408;13.016;2022-11-11T07:29:26;5.40;;;3.20;;
419;SDS011;42600;54.408;13.016;2022-11-11T07:31:54;9.10;;;3.10;;
419;SDS011;42600;54.408;13.016;2022-11-11T07:34:21;21.03;;;3.33;;
419;SDS011;42600;54.408;13.016;2022-11-11T07:36:47;12.47;;;3.37;;
419;SDS011;42600;54.408;13.016;2022-11-11T07:39:14;5.43;;;2.20;;
419;SDS011;42600;54.408;13.016;2022-11-11T07:41:40;3.77;;;1.40;;
419;SDS011;42600;54.408;13.016;2022-11-11T07:44:07;5.60;;;2.63;;
419;SDS011;42600;54.408;13.016;2022-11-11T07:46:33;7.77;;;2.73;;
419;SDS011;42600;54.408;13.016;2022-11-11T07:49:01;14.13;;;2.73;;
419;SDS011;42600;54.408;13.016;2022-11-11T07:51:28;21.57;;;3.23;;
419;SDS011;42600;54.408;13.016;2022-11-11T07:53:54;6.90;;;2.57;;
419;SDS011;42600;54.408;13.016;2022-11-11T07:56:21;12.83;;;3.87;;
419;SDS011;42600;54.408;13.016;2022-11-11T07:58:48;6.27;;;2.50;;
419;SDS011;42600;54.408;13.016;2022-11-11T08:01:14;9.27;;;2.50;;
419;SDS011;42600;54.408;13.016;2022-11-11T08:03:41;9.53;;;2.77;;
419;SDS011;42600;54.408;13.016;2022-11-11T08:06:15;4.93;;;2.93;;
419;SDS011;42600;54.408;13.016;2022-11-11T08:08:44;9.37;;;3.90;;
419;SDS011;42600;54.408;13.016;2022-11-11T08:11:10;10.13;;;3.60;;
419;SDS011;42600;54.408;13.016;2022-11-11T08:13:37;17.23;;;3.60;;
419;SDS011;42600;54.408;13.016;2022-11-11T08:16:06;10.00;;;2.90;;
419;SDS011;42600;54.408;13.016;2022-11-11T08:18:33;4.57;;;1.80;;
419;SDS011;42600;54.408;13.016;2022-11-11T08:21:00;9.10;;;3.03;;
419;SDS011;42600;54.408;13.016;2022-11-11T08:23:29;14.00;;;3.37;;
419;SDS011;42600;54.408;13.016;2022-11-11T08:25:58;14.53;;;2.90;;
419;SDS011;42600;54.408;13.016;2022-11-11T08:28:25;4.47;;;2.70;;
419;SDS011;42600;54.408;13.016;2022-11-11T08:30:52;7.30;;;3.00;;
419;SDS011;42600;54.408;13.016;2022-11-11T08:33:19;10.93;;;3.43;;
419;SDS011;42600;54.408;13.016;2022-11-11T08:35:46;16.70;;;4.60;;
419;SDS011;42600;54.408;13.016;2022-11-11T08:38:13;13.50;;;3.00;;
419;SDS011;42600;54.408;13.016;2022-11-11T08:40:41;8.83;;;2.60;;
419;SDS011;42600;54.408;13.016;2022-11-11T08:43:07;22.97;;;3.30;;
419;SDS011;42600;54.408;13.016;2022-11-11T08:45:34;10.10;;;2.83;;
419;SDS011;42600;54.408;13.016;2022-11-11T08:48:00;7.90;;;3.37;;
419;SDS011;42600;54.408;13.016;2022-11-11T08:50:27;15.77;;;2.40;;
419;SDS011;42600;54.408;13.016;2022-11-11T08:52:54;7.90;;;4.30;;
419;SDS011;42600;54.408;13.016;2022-11-11T08:55:21;13.33;;;3.60;;
419;SDS011;42600;54.408;13.016;2022-11-11T08:57:49;10.00;;;2.13;;
419;SDS011;42600;54.408;13.016;2022-11-11T09:00:22;7.20;;;3.13;;
419;SDS011;42600;54.408;13.016;2022-11-11T09:02:49;5.00;;;2.40;;
419;SDS011;42600;54.408;13.016;2022-11-11T09:05:16;9.30;;;3.13;;
419;SDS011;42600;54.408;13.016;2022-11-11T09:07:42;10.00;;;3.20;;
419;SDS011;42600;54.408;13.016;2022-11-11T09:10:09;10.17;;;3.00;;
419;SDS011;42600;54.408;13.016;2022-11-11T09:12:36;4.90;;;2.10;;
419;SDS011;42600;54.408;13.016;2022-11-11T09:15:04;4.90;;;2.27;;
419;SDS011;42600;54.408;13.016;2022-11-11T09:17:31;9.10;;;2.57;;
419;SDS011;42600;54.408;13.016;2022-11-11T09:19:58;11.20;;;2.43;;
419;SDS011;42600;54.408;13.016;2022-11-11T09:22:24;5.60;;;3.30;;
419;SDS011;42600;54.408;13.016;2022-11-11T09:24:51;14.47;;;5.00;;
419;SDS011;42600;54.408;13.016;2022-11-11T09:27:18;5.80;;;3.03;;
419;SDS011;42600;54.408;13.016;2022-11-11T09:29:44;9.67;;;3.53;;
419;SDS011;42600;54.408;13.016;2022-11-11T09:32:12;9.80;;;3.30;;
419;SDS011;42600;54.408;13.016;2022-11-11T09:34:39;5.40;;;2.07;;
419;SDS011;42600;54.408;13.016;2022-11-11T09:37:05;6.53;;;3.07;;
419;SDS011;42600;54.408;13.016;2022-11-11T09:39:32;12.73;;;3.90;;
419;SDS011;42600;54.408;13.016;2022-11-11T09:42:01;4.50;;;2.53;;
419;SDS011;42600;54.408;13.016;2022-11-11T09:44:37;8.97;;;3.80;;
419;SDS011;42600;54.408;13.016;2022-11-11T09:47:15;3.40;;;1.83;;
419;SDS011;42600;54.408;13.016;2022-11-11T09:49:49;6.63;;;3.93;;
419;SDS011;42600;54.408;13.016;2022-11-11T09:52:24;5.03;;;2.60;;
419;SDS011;42600;54.408;13.016;2022-11-11T09:54:56;14.50;;;2.70;;
419;SDS011;42600;54.408;13.016;2022-11-11T09:57:30;10.60;;;3.63;;
419;SDS011;42600;54.408;13.016;2022-11-11T10:00:02;9.47;;;3.23;;
419;SDS011;42600;54.408;13.016;2022-11-11T10:02:34;4.47;;;2.90;;
419;SDS011;42600;54.408;13.016;2022-11-11T10:05:10;9.67;;;3.17;;
419;SDS011;42600;54.408;13.016;2022-11-11T10:07:40;16.27;;;3.20;;
419;SDS011;42600;54.408;13.016;2022-11-11T10:10:11;15.53;;;4.23;;
419;SDS011;42600;54.408;13.016;2022-11-11T10:12:48;8.47;;;2.93;;
419;SDS011;42600;54.408;13.016;2022-11-11T10:15:17;8.80;;;2.67;;
419;SDS011;42600;54.408;13.016;2022-11-11T10:17:48;6.17;;;2.83;;
419;SDS011;42600;54.408;13.016;2022-11-11T10:20:22;8.47;;;3.40;;
419;SDS011;42600;54.408;13.016;2022-11-11T10:22:54;8.17;;;4.70;;
419;SDS011;42600;54.408;13.016;2022-11-11T10:25:25;9.43;;;2.97;;
419;SDS011;42600;54.408;13.016;2022-11-11T10:27:53;9.07;;;3.43;;
419;SDS011;42600;54.408;13.016;2022-11-11T10:30:22;7.70;;;3.63;;
419;SDS011;42600;54.408;13.016;2022-11-11T10:32:53;8.03;;;2.07;;
419;SDS011;42600;54.408;13.016;2022-11-11T10:35:24;9.60;;;3.13;;
419;SDS011;42600;54.408;13.016;2022-11-11T10:37:55;6.00;;;3.10;;
419;SDS011;42600;54.408;13.016;2022-11-11T10:40:32;9.60;;;3.70;;
419;SDS011;42600;54.408;13.016;2022-11-11T10:43:07;3.20;;;1.43;;
419;SDS011;42600;54.408;13.016;2022-11-11T10:45:44;6.30;;;3.23;;
419;SDS011;42600;54.408;13.016;2022-11-11T10:48:17;4.57;;;2.33;;
419;SDS011;42600;54.408;13.016;2022-11-11T10:50:49;8.47;;;3.20;;
419;SDS011;42600;54.408;13.016;2022-11-11T10:53:21;9.17;;;3.70;;
419;SDS011;42600;54.408;13.016;2022-11-11T10:55:56;4.90;;;2.20;;
419;SDS011;42600;54.408;13.016;2022-11-11T10:58:29;18.03;;;4.43;;
419;SDS011;42600;54.408;13.016;2022-11-11T11:01:02;5.97;;;3.50;;
419;SDS011;42600;54.408;13.016;2022-11-11T11:03:34;13.70;;;2.70;;
419;SDS011;42600;54.408;13.016;2022-11-11T11:06:05;4.23;;;2.80;;
419;SDS011;42600;54.408;13.016;2022-11-11T11:08:37;5.37;;;2.97;;
419;SDS011;42600;54.408;13.016;2022-11-11T11:11:09;11.90;;;3.23;;
419;SDS011;42600;54.408;13.016;2022-11-11T11:13:42;6.33;;;1.90;;
419;SDS011;42600;54.408;13.016;2022-11-11T11:16:14;7.00;;;3.23;;
419;SDS011;42600;54.408;13.016;2022-11-11T11:18:44;8.33;;;2.80;;
419;SDS011;42600;54.408;13.016;2022-11-11T11:21:38;2.80;;;2.37;;
419;SDS011;42600;54.408;13.016;2022-11-11T11:24:18;10.53;;;3.60;;
419;SDS011;42600;54.408;13.016;2022-11-11T11:26:46;8.23;;;2.77;;
419;SDS011;42600;54.408;13.016;2022-11-11T11:29:20;8.87;;;2.53;;
419;SDS011;42600;54.408;13.016;2022-11-11T11:31:50;18.33;;;3.40;;
419;SDS011;42600;54.408;13.016;2022-11-11T11:34:18;21.27;;;3.37;;
419;SDS011;42600;54.408;13.016;2022-11-11T11:36:56;8.33;;;2.53;;
419;SDS011;42600;54.408;13.016;2022-11-11T11:39:31;8.90;;;1.23;;
419;SDS011;42600;54.408;13.016;2022-11-11T11:41:58;9.10;;;3.60;;
419;SDS011;42600;54.408;13.016;2022-11-11T11:44:25;7.30;;;2.87;;
419;SDS011;42600;54.408;13.016;2022-11-11T11:46:54;8.40;;;2.83;;
419;SDS011;42600;54.408;13.016;2022-11-11T11:49:34;7.90;;;3.30;;
419;SDS011;42600;54.408;13.016;2022-11-11T11:52:14;14.43;;;3.53;;
419;SDS011;42600;54.408;13.016;2022-11-11T11:54:48;4.60;;;3.30;;
419;SDS011;42600;54.408;13.016;2022-11-11T11:57:23;6.43;;;2.30;;
419;SDS011;42600;54.408;13.016;2022-11-11T12:00:02;5.57;;;2.27;;
419;SDS011;42600;54.408;13.016;2022-11-11T12:02:36;5.23;;;2.57;;
419;SDS011;42600;54.408;13.016;2022-11-11T12:05:17;6.40;;;2.80;;
419;SDS011;42600;54.408;13.016;2022-11-11T12:07:54;4.63;;;2.67;;
419;SDS011;42600;54.408;13.016;2022-11-11T12:10:35;5.87;;;3.17;;
419;SDS011;42600;54.408;13.016;2022-11-11T12:13:10;7.13;;;3.30;;
419;SDS011;42600;54.408;13.016;2022-11-11T12:15:47;6.13;;;2.13;;
419;SDS011;42600;54.408;13.016;2022-11-11T12:18:29;9.40;;;3.47;;
419;SDS011;42600;54.408;13.016;2022-11-11T12:21:06;5.60;;;2.13;;
419;SDS011;42600;54.408;13.016;2022-11-11T12:23:40;19.40;;;5.80;;
419;SDS011;42600;54.408;13.016;2022-11-11T12:26:27;7.20;;;3.53;;
419;SDS011;42600;54.408;13.016;2022-11-11T12:29:04;8.50;;;3.30;;
419;SDS011;42600;54.408;13.016;2022-11-11T12:31:40;5.80;;;2.97;;
419;SDS011;42600;54.408;13.016;2022-11-11T12:34:24;6.30;;;3.30;;
419;SDS011;42600;54.408;13.016;2022-11-11T12:37:08;5.83;;;2.73;;
419;SDS011;42600;54.408;13.016;2022-11-11T12:39:50;8.40;;;2.30;;
419;SDS011;42600;54.408;13.016;2022-11-11T12:42:30;12.23;;;4.33;;
419;SDS011;42600;54.408;13.016;2022-11-11T12:45:08;13.13;;;3.37;;
419;SDS011;42600;54.408;13.016;2022-11-11T12:47:44;7.10;;;2.37;;
419;SDS011;42600;54.408;13.016;2022-11-11T12:50:22;7.57;;;2.70;;
419;SDS011;42600;54.408;13.016;2022-11-11T12:52:57;3.50;;;2.20;;
419;SDS011;42600;54.408;13.016;2022-11-11T12:55:35;7.50;;;1.47;;
419;SDS011;42600;54.408;13.016;2022-11-11T12:58:16;8.57;;;3.87;;
419;SDS011;42600;54.408;13.016;2022-11-11T13:00:57;5.80;;;4.10;;
419;SDS011;42600;54.408;13.016;2022-11-11T13:03:47;8.63;;;3.00;;
419;SDS011;42600;54.408;13.016;2022-11-11T13:06:26;6.23;;;4.23;;
419;SDS011;42600;54.408;13.016;2022-11-11T13:09:11;5.93;;;2.60;;
419;SDS011;42600;54.408;13.016;2022-11-11T13:11:56;8.30;;;2.93;;
419;SDS011;42600;54.408;13.016;2022-11-11T13:14:30;13.00;;;3.10;;
419;SDS011;42600;54.408;13.016;2022-11-11T13:17:08;7.20;;;3.57;;
419;SDS011;42600;54.408;13.016;2022-11-11T13:19:38;8.77;;;2.50;;
419;SDS011;42600;54.408;13.016;2022-11-11T13:22:07;7.90;;;2.73;;
419;SDS011;42600;54.408;13.016;2022-11-11T13:24:46;10.30;;;4.03;;
419;SDS011;42600;54.408;13.016;2022-11-11T13:27:14;3.30;;;2.80;;
419;SDS011;42600;54.408;13.016;2022-11-11T13:32:40;8.43;;;4.53;;
419;SDS011;42600;54.408;13.016;2022-11-11T13:35:16;12.27;;;4.17;;
419;SDS011;42600;54.408;13.016;2022-11-11T13:37:46;16.73;;;4.20;;
419;SDS011;42600;54.408;13.016;2022-11-11T13:40:23;6.10;;;3.10;;
419;SDS011;42600;54.408;13.016;2022-11-11T13:42:57;7.63;;;2.73;;
419;SDS011;42600;54.408;13.016;2022-11-11T13:45:25;14.53;;;3.57;;
419;SDS011;42600;54.408;13.016;2022-11-11T13:47:55;11.60;;;3.90;;
419;SDS011;42600;54.408;13.016;2022-11-11T13:50:23;14.70;;;4.03;;
419;SDS011;42600;54.408;13.016;2022-11-11T13:52:55;16.17;;;5.10;;
419;SDS011;42600;54.408;13.016;2022-11-11T13:55:29;7.20;;;2.67;;
419;SDS011;42600;54.408;13.016;2022-11-11T13:57:59;6.40;;;3.70;;
419;SDS011;42600;54.408;13.016;2022-11-11T14:00:27;7.20;;;3.33;;
419;SDS011;42600;54.408;13.016;2022-11-11T14:12:20;6.40;;;3.80;;
419;SDS011;42600;54.408;13.016;2022-11-11T14:14:58;30.80;;;4.30;;
419;SDS011;42600;54.408;13.016;2022-11-11T14:17:27;6.20;;;3.23;;
419;SDS011;42600;54.408;13.016;2022-11-11T14:19:55;13.17;;;5.20;;
419;SDS011;42600;54.408;13.016;2022-11-11T14:22:29;10.37;;;4.77;;
419;SDS011;42600;54.408;13.016;2022-11-11T14:25:08;9.90;;;3.77;;
419;SDS011;42600;54.408;13.016;2022-11-11T14:27:44;8.27;;;4.03;;
419;SDS011;42600;54.408;13.016;2022-11-11T14:30:12;13.83;;;3.33;;
419;SDS011;42600;54.408;13.016;2022-11-11T14:33:03;25.23;;;4.80;;
419;SDS011;42600;54.408;13.016;2022-11-11T14:35:38;8.23;;;4.17;;
419;SDS011;42600;54.408;13.016;2022-11-11T14:38:25;9.33;;;3.70;;
419;SDS011;42600;54.408;13.016;2022-11-11T14:41:13;27.50;;;5.20;;
419;SDS011;42600;54.408;13.016;2022-11-11T14:47:16;8.53;;;5.10;;
419;SDS011;42600;54.408;13.016;2022-11-11T14:49:44;10.50;;;3.00;;
419;SDS011;42600;54.408;13.016;2022-11-11T14:52:14;13.10;;;4.47;;
419;SDS011;42600;54.408;13.016;2022-11-11T14:54:53;23.10;;;4.80;;
419;SDS011;42600;54.408;13.016;2022-11-11T14:57:24;19.47;;;4.40;;
419;SDS011;42600;54.408;13.016;2022-11-11T14:59:56;5.93;;;3.37;;
419;SDS011;42600;54.408;13.016;2022-11-11T15:02:25;8.47;;;4.13;;
419;SDS011;42600;54.408;13.016;2022-11-11T15:04:58;9.60;;;4.00;;
419;SDS011;42600;54.408;13.016;2022-11-11T15:07:28;8.00;;;3.67;;
419;SDS011;42600;54.408;13.016;2022-11-11T15:13:00;13.13;;;4.23;;
419;SDS011;42600;54.408;13.016;2022-11-11T15:15:45;7.27;;;3.50;;
419;SDS011;42600;54.408;13.016;2022-11-11T15:18:25;11.93;;;4.00;;
419;SDS011;42600;54.408;13.016;2022-11-11T15:21:24;8.57;;;4.27;;
419;SDS011;42600;54.408;13.016;2022-11-11T15:24:02;6.77;;;3.17;;
419;SDS011;42600;54.408;13.016;2022-11-11T15:26:39;11.00;;;4.57;;
419;SDS011;42600;54.408;13.016;2022-11-11T15:29:26;10.07;;;4.57;;
419;SDS011;42600;54.408;13.016;2022-11-11T15:32:17;8.63;;;4.27;;
419;SDS011;42600;54.408;13.016;2022-11-11T15:34:54;14.23;;;4.30;;
419;SDS011;42600;54.408;13.016;2022-11-11T15:37:25;14.60;;;4.57;;
419;SDS011;42600;54.408;13.016;2022-11-11T15:39:53;9.33;;;4.27;;
419;SDS011;42600;54.408;13.016;2022-11-11T15:42:23;20.40;;;6.00;;
419;SDS011;42600;54.408;13.016;2022-11-11T15:44:55;26.00;;;4.50;;
419;SDS011;42600;54.408;13.016;2022-11-11T15:47:24;15.07;;;4.00;;